Archival Weather

Aeroparque Jorge Newbery

Buenos Aires, Argentina (SABE)

Report from: Thursday, September 21, 2023 7:00 AM -03
Current time: Saturday, March 2, 2024 8:02 AM -03

Current weather – Weather history – Daily summaries
Weather forecast

Present weatherLight drizzle, mist
Temperature16.0°C (60.8°F)
Dew point16.0°C (60.8°F)
Winds 4 kts (2.1 m/s, 4.6 mph) Northwest (310°)
Visibility3937 ft. (1.2 km)
Clouds Ceiling: Overcast 200 ft. (61 m)
Altimeter29.83 in.Hg (1010 mB)
Relative humidity100 %
Density altitude478 ft. (146 m)
Remarks Corrected report
No significant changes expected in the next two hours
Flight conditions Low Instrument Meteorological Conditions
Raw dataCOR SABE 211000Z 31004KT 1200 R13/P2000N -DZ BR OVC002 16/16 Q1010 NOSIG RMK PP999
An error has occurred. This application may no longer respond until reloaded. Reload 🗙